Halim Perdanakusuma International Airport
WIHH : now visible

Airfield :











YOU CAN JOIN US ON...

 
LOGIN :

Register | Disclaimer

   EN    FR    IT 

 









Legend :    VFR   Marginal VFR   IFR   Intensive IFR   Very Intensive IFR
Visi :
Ceiling :
>= 8 km
>= 3000ft
5 to 8 km
1000 to 3000 ft
1500m to 5 km
500 to 1000 ft
800 to 1500m
200 to 500 ft
< 800m
< 200 ft
Symbols :   Thunderstorms  Fog  Heavy snow  Heavy precipitations  Wind > 20 kt






- Airport Elevation : 84 ft
- IATA code : HLP


WIHH - Halim Perdanakusuma International

METAR N/A
TAF TAF WIHH
Valid from the 03 at 12:00 until the 04 at 12:00 UTC


031100Z 0312/0412 09006KT 6000 SCT020
BECMG 0316/0318 00000KT 5000 HZ FEW020
BECMG 0400/0402 VRB03KT 5000 HZ
TEMPO 0406/0409 06008KT 4000 -RA FEW017CB SCT018
WIIF FIR / Asia



MET'MAP, your aeronautical weather chart ! - Copyright ORBIFLY December 2007 - Disclaimer

ORBIFLY MET'MAP TEAM :

Programming & Development : Alexandra Zaïnal
Original concept : Baudouin d'Aumeries
Technical & hardware support : Manuel Goepfert
Assistance : Marc-Olivier Méhu




SOURCES & CREDITS :

   NOAA       Earth
Advisory